createdAt,value
2023-05-25T00:01:49.534Z,13.20
2023-05-25T00:04:19.568Z,13.20
2023-05-25T00:06:47.837Z,13.10
2023-05-25T00:09:15.858Z,13.10
2023-05-25T00:11:43.421Z,13.10
2023-05-25T00:14:10.930Z,13.10
2023-05-25T00:16:40.704Z,13.10
2023-05-25T00:19:10.757Z,13.10
2023-05-25T00:21:38.355Z,13.10
2023-05-25T00:24:06.847Z,13.00
2023-05-25T00:26:35.449Z,13.10
2023-05-25T00:29:04.388Z,13.10
2023-05-25T00:31:36.642Z,13.30
2023-05-25T00:34:04.154Z,13.20
2023-05-25T00:36:31.559Z,13.20
2023-05-25T00:38:58.964Z,13.20
2023-05-25T00:41:27.896Z,13.20
2023-05-25T00:43:55.237Z,13.30
2023-05-25T00:46:23.694Z,13.20
2023-05-25T00:48:56.302Z,13.20
2023-05-25T00:51:25.451Z,13.20
2023-05-25T00:53:53.138Z,13.20
2023-05-25T00:56:24.652Z,13.20
2023-05-25T00:58:54.807Z,13.10
2023-05-25T01:01:24.362Z,13.10
2023-05-25T01:03:54.143Z,13.00
2023-05-25T01:06:23.629Z,13.00
2023-05-25T01:09:00.432Z,13.00
2023-05-25T01:11:36.592Z,12.90
2023-05-25T01:14:04.146Z,12.90
2023-05-25T01:16:32.258Z,12.90
2023-05-25T01:18:59.628Z,12.90
2023-05-25T01:21:42.339Z,12.80
2023-05-25T01:24:22.864Z,12.80
2023-05-25T01:27:02.130Z,12.80
2023-05-25T01:29:32.693Z,12.80
2023-05-25T01:32:00.667Z,12.70
2023-05-25T01:34:30.225Z,12.70
2023-05-25T01:36:57.628Z,12.70
2023-05-25T01:39:25.169Z,12.70
2023-05-25T01:41:52.514Z,12.80
2023-05-25T01:44:20.949Z,12.70
2023-05-25T01:46:53.850Z,12.10
2023-05-25T01:49:31.922Z,12.80
2023-05-25T01:52:44.882Z,12.80
2023-05-25T01:55:14.931Z,12.80
2023-05-25T01:57:45.826Z,12.80
2023-05-25T02:00:14.283Z,12.90
2023-05-25T02:02:45.795Z,12.70
2023-05-25T02:05:14.105Z,12.70
2023-05-25T02:07:41.826Z,12.70
2023-05-25T02:10:09.589Z,12.70
2023-05-25T02:12:37.249Z,12.70
2023-05-25T02:15:06.033Z,12.50
2023-05-25T02:17:33.413Z,12.70
2023-05-25T02:20:00.976Z,12.70
2023-05-25T02:22:28.385Z,12.70
2023-05-25T02:24:55.711Z,12.80
2023-05-25T02:27:23.266Z,12.80
2023-05-25T02:29:50.839Z,13.00
2023-05-25T02:32:18.159Z,13.00
2023-05-25T02:34:47.046Z,13.00
2023-05-25T02:37:14.608Z,13.10
2023-05-25T02:39:42.073Z,13.10
2023-05-25T02:42:09.611Z,13.10
2023-05-25T02:44:37.086Z,13.10
2023-05-25T02:47:04.854Z,13.10
2023-05-25T02:49:33.525Z,13.20
2023-05-25T02:52:00.984Z,13.20
2023-05-25T02:54:28.344Z,13.20
2023-05-25T02:56:56.013Z,13.20
2023-05-25T02:59:25.159Z,13.20
2023-05-25T03:01:52.478Z,13.20
2023-05-25T03:04:20.143Z,13.20
2023-05-25T03:06:48.508Z,13.20
2023-05-25T03:09:16.020Z,13.20
2023-05-25T03:11:43.575Z,13.20
2023-05-25T03:14:11.285Z,13.20
2023-05-25T03:16:39.360Z,13.20
2023-05-25T03:19:07.999Z,13.20
2023-05-25T03:21:35.458Z,13.30
2023-05-25T03:24:02.815Z,13.30
2023-05-25T03:26:30.952Z,13.30
2023-05-25T03:28:58.257Z,13.30
2023-05-25T03:31:25.929Z,13.30
2023-05-25T03:33:53.495Z,13.40
2023-05-25T03:36:22.453Z,13.40
2023-05-25T03:38:50.049Z,13.40
2023-05-25T03:41:17.353Z,13.40
2023-05-25T03:43:44.766Z,13.40
2023-05-25T03:46:12.192Z,13.40
2023-05-25T03:48:39.630Z,13.40
2023-05-25T03:51:06.954Z,13.40
2023-05-25T03:53:34.273Z,13.40
2023-05-25T03:56:01.651Z,13.40
2023-05-25T03:58:28.924Z,13.40
2023-05-25T04:00:56.338Z,13.30
2023-05-25T04:03:24.221Z,13.30
2023-05-25T04:05:51.919Z,14.10
2023-05-25T04:08:22.659Z,13.30
2023-05-25T04:10:50.003Z,13.30
2023-05-25T04:13:17.309Z,13.30
2023-05-25T04:15:44.916Z,13.30
2023-05-25T04:18:12.578Z,13.30
2023-05-25T04:20:40.669Z,13.30
2023-05-25T04:23:08.124Z,13.70
2023-05-25T04:25:35.434Z,13.30
2023-05-25T04:28:02.956Z,13.40
2023-05-25T04:30:31.565Z,13.40
2023-05-25T04:33:02.910Z,13.40
2023-05-25T04:35:31.740Z,13.50
2023-05-25T04:38:03.197Z,13.90
2023-05-25T04:40:33.326Z,13.50
2023-05-25T04:43:01.136Z,13.50
2023-05-25T04:45:29.376Z,13.60
2023-05-25T04:47:58.360Z,13.60
2023-05-25T04:50:25.792Z,13.60
2023-05-25T04:52:53.095Z,13.60
2023-05-25T04:55:20.672Z,13.60
2023-05-25T04:57:48.127Z,13.60
2023-05-25T05:00:16.887Z,13.40
2023-05-25T05:02:46.178Z,13.70
2023-05-25T05:05:13.661Z,13.70
2023-05-25T05:07:41.560Z,13.80
2023-05-25T05:10:09.409Z,13.80
2023-05-25T05:12:36.963Z,13.80
2023-05-25T05:15:04.751Z,13.80
2023-05-25T05:17:32.174Z,13.90
2023-05-25T05:19:59.833Z,13.90
2023-05-25T05:22:27.295Z,13.90
2023-05-25T05:24:54.682Z,14.00
2023-05-25T05:27:22.532Z,14.00
2023-05-25T05:29:51.264Z,14.00
2023-05-25T05:32:19.132Z,14.00
2023-05-25T05:34:46.655Z,13.90
2023-05-25T05:37:14.131Z,13.90
2023-05-25T05:39:41.577Z,13.90
2023-05-25T05:42:09.692Z,13.80
2023-05-25T05:44:37.153Z,13.70
2023-05-25T05:47:04.758Z,13.90
2023-05-25T05:49:34.626Z,13.90
2023-05-25T05:52:03.482Z,13.90
2023-05-25T05:54:30.908Z,13.90
2023-05-25T05:56:58.536Z,13.90
2023-05-25T05:59:25.893Z,13.90
2023-05-25T06:01:54.501Z,14.00
2023-05-25T06:04:25.895Z,14.00
2023-05-25T06:06:53.510Z,14.00
2023-05-25T06:09:20.977Z,14.00
2023-05-25T06:11:48.432Z,14.00
2023-05-25T06:14:15.772Z,14.10
2023-05-25T06:16:43.835Z,14.10
2023-05-25T06:19:12.277Z,14.10
2023-05-25T06:21:39.613Z,14.10
2023-05-25T06:24:07.550Z,14.10
2023-05-25T06:26:35.065Z,14.10
2023-05-25T06:29:02.579Z,14.20
2023-05-25T06:31:32.159Z,14.20
2023-05-25T06:33:59.495Z,14.20
2023-05-25T06:36:27.447Z,14.20
2023-05-25T06:38:55.117Z,14.30
2023-05-25T06:41:22.543Z,14.30
2023-05-25T06:43:50.098Z,14.40
2023-05-25T06:46:18.619Z,14.30
2023-05-25T06:48:46.401Z,14.40
2023-05-25T06:51:14.106Z,14.40
2023-05-25T06:53:41.555Z,14.50
2023-05-25T06:56:09.069Z,14.50
2023-05-25T06:58:36.481Z,14.50
2023-05-25T07:01:04.148Z,14.50
2023-05-25T07:03:32.876Z,14.60
2023-05-25T07:06:00.830Z,14.60
2023-05-25T07:08:28.217Z,14.60
2023-05-25T07:10:55.776Z,14.60
2023-05-25T07:13:23.346Z,14.60
2023-05-25T07:15:52.761Z,14.80
2023-05-25T07:18:20.604Z,14.80
2023-05-25T07:20:48.635Z,14.90
2023-05-25T07:23:16.069Z,14.90
2023-05-25T07:25:43.877Z,15.30
2023-05-25T07:28:11.823Z,15.00
2023-05-25T07:30:40.220Z,15.00
2023-05-25T07:33:07.677Z,15.10
2023-05-25T07:35:35.793Z,15.10
2023-05-25T07:38:07.001Z,15.10
2023-05-25T07:40:34.316Z,15.20
2023-05-25T07:43:02.203Z,15.30
2023-05-25T07:45:29.666Z,14.10
2023-05-25T07:47:57.040Z,15.30
2023-05-25T07:50:24.491Z,15.40
2023-05-25T07:52:51.851Z,15.40
2023-05-25T07:55:21.344Z,15.50
2023-05-25T07:57:48.901Z,15.70
2023-05-25T08:00:16.614Z,15.90
2023-05-25T08:02:44.297Z,15.50
2023-05-25T08:05:12.887Z,15.40
2023-05-25T08:07:42.164Z,15.40
2023-05-25T08:10:10.683Z,15.40
2023-05-25T08:12:49.038Z,15.40
2023-05-25T08:15:17.840Z,15.40
2023-05-25T08:17:45.804Z,15.50
2023-05-25T08:20:14.289Z,15.50
2023-05-25T08:22:43.480Z,15.50
2023-05-25T08:25:11.385Z,15.60
2023-05-25T08:27:38.809Z,15.60
2023-05-25T08:30:07.552Z,15.60
2023-05-25T08:32:35.009Z,15.60
2023-05-25T08:35:03.644Z,15.60
2023-05-25T08:37:32.798Z,15.60
2023-05-25T08:40:02.885Z,15.60
2023-05-25T08:42:30.742Z,15.70
2023-05-25T08:44:59.171Z,15.70
2023-05-25T08:47:32.146Z,15.80
2023-05-25T08:50:02.147Z,15.90
2023-05-25T08:52:32.655Z,16.00
2023-05-25T08:55:04.923Z,16.20
2023-05-25T08:57:44.420Z,16.30
2023-05-25T09:00:15.765Z,16.30
2023-05-25T09:03:00.324Z,16.30
2023-05-25T09:05:28.230Z,16.30
2023-05-25T09:07:57.804Z,16.50
2023-05-25T09:10:27.887Z,16.60
2023-05-25T09:12:56.352Z,16.70
2023-05-25T09:15:24.060Z,16.80
2023-05-25T09:17:51.586Z,16.90
2023-05-25T09:20:20.313Z,17.10
2023-05-25T09:22:48.244Z,17.20
2023-05-25T09:25:22.183Z,17.10
2023-05-25T09:27:50.776Z,17.10
2023-05-25T09:30:18.228Z,17.10
2023-05-25T09:32:45.816Z,17.20
2023-05-25T09:35:16.441Z,17.10
2023-05-25T09:37:44.932Z,17.50
2023-05-25T09:40:14.206Z,17.10
2023-05-25T09:42:42.835Z,17.00
2023-05-25T09:45:10.571Z,17.00
2023-05-25T09:47:38.466Z,17.00
2023-05-25T09:50:07.924Z,17.00
2023-05-25T09:52:36.589Z,17.00
2023-05-25T09:55:04.224Z,17.00
2023-05-25T09:57:31.683Z,16.90
2023-05-25T10:00:05.500Z,16.90
2023-05-25T10:02:33.053Z,17.00
2023-05-25T10:05:00.486Z,16.90
2023-05-25T10:07:28.427Z,16.90
2023-05-25T10:10:06.429Z,16.90
2023-05-25T10:12:35.162Z,16.90
2023-05-25T10:15:06.516Z,16.90
2023-05-25T10:17:36.821Z,17.30
2023-05-25T10:20:06.742Z,16.90
2023-05-25T10:22:41.288Z,17.00
2023-05-25T10:25:16.623Z,17.00
2023-05-25T10:27:52.145Z,16.90
2023-05-25T10:30:19.736Z,16.90
2023-05-25T10:32:52.300Z,16.90
2023-05-25T10:35:21.138Z,16.90
2023-05-25T10:37:53.092Z,16.90
2023-05-25T10:40:24.228Z,17.00
2023-05-25T10:42:52.587Z,17.00
2023-05-25T10:45:20.628Z,17.10
2023-05-25T10:47:48.232Z,17.20
2023-05-25T10:50:27.051Z,17.30
2023-05-25T10:53:07.359Z,17.40
2023-05-25T10:56:00.682Z,17.50
2023-05-25T10:58:29.613Z,17.60
2023-05-25T11:01:12.798Z,17.60
2023-05-25T11:04:08.112Z,17.80
2023-05-25T11:06:40.416Z,17.80
2023-05-25T11:09:08.205Z,17.90
2023-05-25T11:11:45.621Z,17.90
2023-05-25T11:14:22.567Z,17.80
2023-05-25T11:17:18.424Z,17.70
2023-05-25T11:19:51.906Z,17.70
2023-05-25T11:22:21.320Z,17.80
2023-05-25T11:24:53.782Z,17.80
2023-05-25T11:27:29.071Z,17.80
2023-05-25T11:29:58.345Z,17.70
2023-05-25T11:32:29.369Z,17.90
2023-05-25T11:34:58.492Z,17.80
2023-05-25T11:37:31.826Z,17.90
2023-05-25T11:39:59.559Z,17.80
2023-05-25T11:42:27.984Z,17.70
2023-05-25T11:45:03.770Z,17.70
2023-05-25T11:47:33.115Z,17.70
2023-05-25T11:50:00.992Z,17.70
2023-05-25T11:52:28.797Z,17.60
2023-05-25T11:54:56.200Z,17.60
2023-05-25T11:57:25.777Z,17.50
2023-05-25T11:59:55.845Z,17.50
2023-05-25T12:02:24.417Z,17.60
2023-05-25T12:05:01.752Z,17.50
2023-05-25T12:07:30.287Z,17.40
2023-05-25T12:10:10.879Z,18.20
2023-05-25T12:12:45.757Z,17.50
2023-05-25T12:15:24.236Z,17.60
2023-05-25T12:17:52.648Z,17.60
2023-05-25T12:20:21.976Z,17.70
2023-05-25T12:22:49.648Z,17.60
2023-05-25T12:25:24.963Z,17.70
2023-05-25T12:28:12.583Z,17.70
2023-05-25T12:30:40.520Z,17.70
2023-05-25T12:33:08.393Z,17.80
2023-05-25T12:35:50.071Z,17.80
2023-05-25T12:38:19.748Z,17.90
2023-05-25T12:40:47.724Z,17.90
2023-05-25T12:43:16.850Z,17.90
2023-05-25T12:45:44.692Z,18.00
2023-05-25T12:48:12.201Z,18.10
2023-05-25T12:50:41.094Z,18.30
2023-05-25T12:53:08.787Z,18.30
2023-05-25T12:55:36.634Z,18.40
2023-05-25T12:58:06.025Z,18.50
2023-05-25T13:00:33.546Z,18.50
2023-05-25T13:03:01.463Z,18.50
2023-05-25T13:05:31.146Z,18.50
2023-05-25T13:07:59.563Z,18.50
2023-05-25T13:10:30.781Z,18.50
2023-05-25T13:12:58.660Z,18.50
2023-05-25T13:15:27.635Z,18.40
2023-05-25T13:17:56.639Z,18.40
2023-05-25T13:20:25.578Z,18.30
2023-05-25T13:22:57.652Z,18.20
2023-05-25T13:25:28.124Z,18.30
2023-05-25T13:27:58.064Z,18.20
2023-05-25T13:30:26.653Z,18.50
2023-05-25T13:32:54.328Z,18.20
2023-05-25T13:35:40.619Z,18.30
2023-05-25T13:38:08.459Z,18.40
2023-05-25T13:40:35.848Z,18.40
2023-05-25T13:43:04.769Z,18.40
2023-05-25T13:45:32.425Z,18.40
2023-05-25T13:47:59.932Z,18.40
2023-05-25T13:50:27.702Z,18.50
2023-05-25T13:52:56.407Z,18.30
2023-05-25T13:55:24.118Z,18.40
2023-05-25T13:57:54.267Z,18.40
2023-05-25T14:00:21.965Z,18.40
2023-05-25T14:02:49.404Z,18.30
2023-05-25T14:05:17.123Z,18.30
2023-05-25T14:07:44.745Z,18.30
2023-05-25T14:10:12.297Z,18.30
2023-05-25T14:12:40.567Z,18.20
2023-05-25T14:15:08.827Z,18.20
2023-05-25T14:17:36.401Z,18.20
2023-05-25T14:20:04.412Z,18.30
2023-05-25T14:22:32.320Z,18.40
2023-05-25T14:25:01.184Z,18.40
2023-05-25T14:27:28.748Z,18.50
2023-05-25T14:29:56.515Z,18.50
2023-05-25T14:32:24.124Z,18.50
2023-05-25T14:34:51.477Z,18.50
2023-05-25T14:37:18.897Z,18.40
2023-05-25T14:39:46.325Z,18.40
2023-05-25T14:42:15.828Z,18.40
2023-05-25T14:44:43.210Z,18.30
2023-05-25T14:47:10.826Z,18.60
2023-05-25T14:49:39.530Z,18.40
2023-05-25T14:52:06.920Z,18.30
2023-05-25T14:54:34.323Z,18.30
2023-05-25T14:57:02.041Z,18.20
2023-05-25T14:59:29.372Z,18.10
2023-05-25T15:01:56.829Z,18.30
2023-05-25T15:04:28.539Z,18.30
2023-05-25T15:06:55.965Z,18.40
2023-05-25T15:09:23.672Z,18.40
2023-05-25T15:11:51.064Z,18.40
2023-05-25T15:14:18.485Z,18.30
2023-05-25T15:16:46.125Z,18.20
2023-05-25T15:19:16.666Z,18.20
2023-05-25T15:21:45.031Z,18.30
2023-05-25T15:24:16.844Z,18.10
2023-05-25T15:26:44.248Z,18.20
2023-05-25T15:29:11.588Z,18.30
2023-05-25T15:31:39.063Z,18.40
2023-05-25T15:34:06.500Z,18.40
2023-05-25T15:36:34.064Z,18.40
2023-05-25T15:39:01.504Z,18.30
2023-05-25T15:41:29.147Z,18.40
2023-05-25T15:44:01.479Z,18.20
2023-05-25T15:46:29.450Z,18.10
2023-05-25T15:48:56.979Z,18.10
2023-05-25T15:51:24.442Z,18.10
2023-05-25T15:53:52.413Z,18.10
2023-05-25T15:56:19.988Z,18.20
2023-05-25T15:58:49.608Z,18.20
2023-05-25T16:01:17.155Z,18.20
2023-05-25T16:03:45.135Z,18.20
2023-05-25T16:06:12.898Z,18.10
2023-05-25T16:08:40.547Z,18.00
2023-05-25T16:11:08.233Z,18.10
2023-05-25T16:13:35.623Z,18.00
2023-05-25T16:16:03.157Z,18.00
2023-05-25T16:18:30.824Z,18.00
2023-05-25T16:20:58.276Z,18.00
2023-05-25T16:23:27.017Z,17.90
2023-05-25T16:25:54.780Z,17.80
2023-05-25T16:28:22.185Z,17.60
2023-05-25T16:30:49.771Z,17.80
2023-05-25T16:33:17.306Z,17.80
2023-05-25T16:35:46.179Z,17.80
2023-05-25T16:38:13.803Z,17.80
2023-05-25T16:40:41.401Z,17.80
2023-05-25T16:43:08.810Z,17.90
2023-05-25T16:45:36.318Z,17.90
2023-05-25T16:48:03.928Z,17.90
2023-05-25T16:50:31.407Z,17.80
2023-05-25T16:52:58.749Z,17.80
2023-05-25T16:55:26.340Z,17.90
2023-05-25T16:57:53.837Z,17.90
2023-05-25T17:00:21.528Z,17.90
2023-05-25T17:02:49.066Z,17.90
2023-05-25T17:05:16.710Z,18.00
2023-05-25T17:07:44.163Z,18.00
2023-05-25T17:10:11.838Z,18.30
2023-05-25T17:12:39.381Z,18.00
2023-05-25T17:15:07.658Z,17.90
2023-05-25T17:17:35.100Z,17.80
2023-05-25T17:20:03.738Z,17.70
2023-05-25T17:22:31.561Z,17.60
2023-05-25T17:24:58.942Z,17.70
2023-05-25T17:27:26.503Z,17.70
2023-05-25T17:29:54.068Z,17.70
2023-05-25T17:32:21.478Z,17.70
2023-05-25T17:34:49.008Z,17.70
2023-05-25T17:37:16.774Z,17.70
2023-05-25T17:39:45.156Z,17.60
2023-05-25T17:42:15.059Z,17.50
2023-05-25T17:44:42.741Z,17.50
2023-05-25T17:47:11.177Z,17.50
2023-05-25T17:49:38.798Z,17.50
2023-05-25T17:52:07.809Z,17.50
2023-05-25T17:54:35.675Z,17.50
2023-05-25T17:57:09.173Z,17.50
2023-05-25T17:59:36.682Z,17.40
2023-05-25T18:02:04.260Z,17.30
2023-05-25T18:04:31.646Z,17.20
2023-05-25T18:06:58.981Z,17.10
2023-05-25T18:09:26.301Z,17.10
2023-05-25T18:11:55.290Z,17.10
2023-05-25T18:14:22.753Z,17.00
2023-05-25T18:16:50.114Z,16.90
2023-05-25T18:19:18.585Z,17.00
2023-05-25T18:21:46.013Z,17.00
2023-05-25T18:24:13.499Z,17.00
2023-05-25T18:26:42.502Z,17.00
2023-05-25T18:29:09.852Z,17.00
2023-05-25T18:31:37.357Z,17.00
2023-05-25T18:34:06.935Z,17.00
2023-05-25T18:36:34.325Z,16.80
2023-05-25T18:39:01.688Z,16.80
2023-05-25T18:41:29.190Z,16.80
2023-05-25T18:43:56.545Z,17.00
2023-05-25T18:46:25.173Z,16.90
2023-05-25T18:48:53.223Z,16.90
2023-05-25T18:51:23.339Z,17.00
2023-05-25T18:53:50.674Z,17.00
2023-05-25T18:56:18.089Z,16.90
2023-05-25T18:58:45.749Z,16.90
2023-05-25T19:01:13.209Z,16.90
2023-05-25T19:07:58.192Z,16.80
2023-05-25T19:10:27.018Z,16.80
2023-05-25T19:12:54.554Z,16.80
2023-05-25T19:15:21.923Z,16.70
2023-05-25T19:17:49.429Z,16.70
2023-05-25T19:20:17.218Z,16.60
2023-05-25T19:22:44.777Z,16.60
2023-05-25T19:25:12.230Z,16.60
2023-05-25T19:27:39.771Z,16.50
2023-05-25T19:30:07.651Z,16.50
2023-05-25T19:32:35.191Z,16.50
2023-05-25T19:35:02.719Z,16.40
2023-05-25T19:37:30.079Z,16.40
2023-05-25T19:39:58.338Z,16.30
2023-05-25T19:42:25.718Z,16.20
2023-05-25T19:44:53.144Z,16.10
2023-05-25T19:47:20.574Z,16.10
2023-05-25T19:49:48.145Z,16.00
2023-05-25T19:52:18.960Z,15.90
2023-05-25T19:54:46.378Z,15.90
2023-05-25T19:57:13.857Z,15.80
2023-05-25T19:59:41.332Z,15.80
2023-05-25T20:02:08.844Z,15.70
2023-05-25T20:04:36.334Z,15.70
2023-05-25T20:07:03.908Z,15.50
2023-05-25T20:09:31.529Z,15.40
2023-05-25T20:12:00.933Z,15.40
2023-05-25T20:14:28.584Z,15.30
2023-05-25T20:16:56.395Z,15.20
2023-05-25T20:19:23.938Z,15.20
2023-05-25T20:21:51.913Z,15.10
2023-05-25T20:24:19.934Z,15.00
2023-05-25T20:26:47.518Z,14.90
2023-05-25T20:29:14.988Z,14.90
2023-05-25T20:31:43.719Z,14.80
2023-05-25T20:34:11.355Z,14.70
2023-05-25T20:36:38.898Z,14.70
2023-05-25T20:39:06.279Z,14.60
2023-05-25T20:41:33.632Z,14.60
2023-05-25T20:44:01.015Z,14.60
2023-05-25T20:46:28.567Z,14.60
2023-05-25T20:48:58.497Z,14.50
2023-05-25T20:51:27.113Z,14.50
2023-05-25T20:53:54.489Z,14.50
2023-05-25T20:56:22.262Z,14.40
2023-05-25T20:58:49.787Z,14.30
2023-05-25T21:01:17.616Z,14.30
2023-05-25T21:03:45.183Z,14.30
2023-05-25T21:06:12.661Z,14.40
2023-05-25T21:08:40.031Z,14.20
2023-05-25T21:11:07.599Z,14.20
2023-05-25T21:13:37.461Z,14.20
2023-05-25T21:16:06.313Z,14.20
2023-05-25T21:18:33.712Z,14.20
2023-05-25T21:21:02.015Z,14.20
2023-05-25T21:23:29.328Z,14.10
2023-05-25T21:25:59.387Z,14.10
2023-05-25T21:28:26.833Z,14.10
2023-05-25T21:30:54.209Z,14.10
2023-05-25T21:33:21.837Z,14.10
2023-05-25T21:35:49.268Z,14.10
2023-05-25T21:38:16.779Z,14.10
2023-05-25T21:40:44.242Z,14.00
2023-05-25T21:43:14.816Z,14.00
2023-05-25T21:45:42.360Z,14.10
2023-05-25T21:48:09.802Z,14.10
2023-05-25T21:50:39.219Z,14.00
2023-05-25T21:53:06.605Z,14.00
2023-05-25T21:55:34.098Z,13.90
2023-05-25T21:58:01.663Z,13.80
2023-05-25T22:00:29.096Z,13.80
2023-05-25T22:02:56.682Z,13.30
2023-05-25T22:05:24.079Z,13.70
2023-05-25T22:07:52.250Z,13.70
2023-05-25T22:10:21.091Z,13.70
2023-05-25T22:12:48.480Z,13.70
2023-05-25T22:15:15.789Z,13.70
2023-05-25T22:17:43.270Z,13.20
2023-05-25T22:20:12.475Z,13.60
2023-05-25T22:22:39.949Z,13.60
2023-05-25T22:25:07.550Z,13.50
2023-05-25T22:27:35.969Z,13.50
2023-05-25T22:30:04.291Z,13.50
2023-05-25T22:32:31.709Z,13.50
2023-05-25T22:35:04.786Z,13.50
2023-05-25T22:37:32.177Z,13.50
2023-05-25T22:39:59.581Z,13.40
2023-05-25T22:42:26.940Z,13.40
2023-05-25T22:44:54.270Z,13.80
2023-05-25T22:47:21.703Z,13.20
2023-05-25T22:49:49.626Z,13.20
2023-05-25T22:52:17.466Z,13.20
2023-05-25T22:54:45.021Z,13.20
2023-05-25T22:57:12.414Z,14.10
2023-05-25T22:59:39.829Z,13.10
2023-05-25T23:02:07.665Z,13.20
2023-05-25T23:04:38.413Z,13.20
2023-05-25T23:07:05.832Z,13.10
2023-05-25T23:09:33.205Z,13.20
2023-05-25T23:12:00.816Z,13.00
2023-05-25T23:14:30.392Z,13.00
2023-05-25T23:16:57.841Z,13.00
2023-05-25T23:19:25.823Z,13.00
2023-05-25T23:21:54.391Z,13.00
2023-05-25T23:24:21.770Z,12.90
2023-05-25T23:26:49.400Z,12.80
2023-05-25T23:29:16.753Z,12.80
2023-05-25T23:31:44.264Z,12.80
2023-05-25T23:34:11.774Z,12.70
2023-05-25T23:36:40.710Z,12.70
2023-05-25T23:39:08.158Z,12.70
2023-05-25T23:41:35.879Z,12.60
2023-05-25T23:44:04.291Z,12.60
2023-05-25T23:46:31.842Z,12.60
2023-05-25T23:48:59.722Z,12.50
2023-05-25T23:51:27.089Z,12.50
2023-05-25T23:53:54.552Z,12.50
2023-05-25T23:56:22.206Z,12.50
2023-05-25T23:59:22.328Z,12.50
